sensor_id;sensor_type;location;lat;lon;timestamp;temperature;humidity
22145;DHT22;11238;48.730;11.566;2024-01-10T00:00:21;-5.70;97.30
22145;DHT22;11238;48.730;11.566;2024-01-10T00:02:47;-5.70;97.80
22145;DHT22;11238;48.730;11.566;2024-01-10T00:05:13;-5.70;97.90
22145;DHT22;11238;48.730;11.566;2024-01-10T00:07:39;-5.60;97.90
22145;DHT22;11238;48.730;11.566;2024-01-10T00:10:05;-5.70;97.50
22145;DHT22;11238;48.730;11.566;2024-01-10T00:12:34;-5.70;97.80
22145;DHT22;11238;48.730;11.566;2024-01-10T00:15:04;-5.70;98.10
22145;DHT22;11238;48.730;11.566;2024-01-10T00:17:30;-5.70;98.20
22145;DHT22;11238;48.730;11.566;2024-01-10T00:19:56;-5.70;98.30
22145;DHT22;11238;48.730;11.566;2024-01-10T00:22:22;-5.60;98.50
22145;DHT22;11238;48.730;11.566;2024-01-10T00:24:47;-5.60;98.60
22145;DHT22;11238;48.730;11.566;2024-01-10T00:27:13;-5.60;98.60
22145;DHT22;11238;48.730;11.566;2024-01-10T00:29:39;-5.60;98.70
22145;DHT22;11238;48.730;11.566;2024-01-10T00:32:06;-5.60;98.90
22145;DHT22;11238;48.730;11.566;2024-01-10T00:34:32;-5.60;98.90
22145;DHT22;11238;48.730;11.566;2024-01-10T00:37:07;-5.50;98.90
22145;DHT22;11238;48.730;11.566;2024-01-10T00:39:34;-5.50;98.90
22145;DHT22;11238;48.730;11.566;2024-01-10T00:42:00;-5.50;98.80
22145;DHT22;11238;48.730;11.566;2024-01-10T00:44:26;-5.50;98.80
22145;DHT22;11238;48.730;11.566;2024-01-10T00:46:52;-5.40;98.80
22145;DHT22;11238;48.730;11.566;2024-01-10T00:49:18;-5.40;99.00
22145;DHT22;11238;48.730;11.566;2024-01-10T00:51:44;-5.40;99.00
22145;DHT22;11238;48.730;11.566;2024-01-10T00:54:10;-5.40;99.10
22145;DHT22;11238;48.730;11.566;2024-01-10T00:56:35;-5.40;99.20
22145;DHT22;11238;48.730;11.566;2024-01-10T00:59:22;-5.40;99.40
22145;DHT22;11238;48.730;11.566;2024-01-10T01:01:48;-5.40;99.30
22145;DHT22;11238;48.730;11.566;2024-01-10T01:04:18;-5.30;99.60
22145;DHT22;11238;48.730;11.566;2024-01-10T01:06:49;-5.30;99.60
22145;DHT22;11238;48.730;11.566;2024-01-10T01:09:30;-5.30;99.80
22145;DHT22;11238;48.730;11.566;2024-01-10T01:12:09;-5.30;99.90
22145;DHT22;11238;48.730;11.566;2024-01-10T01:14:35;-5.30;99.80
22145;DHT22;11238;48.730;11.566;2024-01-10T01:17:01;-5.30;99.90
22145;DHT22;11238;48.730;11.566;2024-01-10T01:19:50;-5.30;99.90
22145;DHT22;11238;48.730;11.566;2024-01-10T01:22:16;-5.30;99.90
22145;DHT22;11238;48.730;11.566;2024-01-10T01:24:44;-5.30;99.90
22145;DHT22;11238;48.730;11.566;2024-01-10T01:27:09;-5.30;99.90
22145;DHT22;11238;48.730;11.566;2024-01-10T01:29:35;-5.30;99.90
22145;DHT22;11238;48.730;11.566;2024-01-10T01:32:01;-5.40;99.90
22145;DHT22;11238;48.730;11.566;2024-01-10T01:34:27;-5.30;99.90
22145;DHT22;11238;48.730;11.566;2024-01-10T01:36:53;-5.30;99.90
22145;DHT22;11238;48.730;11.566;2024-01-10T01:39:19;-5.30;99.90
22145;DHT22;11238;48.730;11.566;2024-01-10T01:41:46;-5.30;99.90
22145;DHT22;11238;48.730;11.566;2024-01-10T01:44:13;-5.40;99.90
22145;DHT22;11238;48.730;11.566;2024-01-10T01:46:39;-5.30;99.90
22145;DHT22;11238;48.730;11.566;2024-01-10T01:49:06;-5.30;99.90
22145;DHT22;11238;48.730;11.566;2024-01-10T01:51:34;-5.30;99.90
22145;DHT22;11238;48.730;11.566;2024-01-10T01:54:00;-5.30;99.90
22145;DHT22;11238;48.730;11.566;2024-01-10T01:56:26;-5.30;99.90
22145;DHT22;11238;48.730;11.566;2024-01-10T01:58:53;-5.30;99.90
22145;DHT22;11238;48.730;11.566;2024-01-10T02:01:20;-5.30;99.90
22145;DHT22;11238;48.730;11.566;2024-01-10T02:03:47;-5.40;99.90
22145;DHT22;11238;48.730;11.566;2024-01-10T02:06:13;-5.40;99.90
22145;DHT22;11238;48.730;11.566;2024-01-10T02:08:39;-5.40;99.90
22145;DHT22;11238;48.730;11.566;2024-01-10T02:11:24;-5.40;99.90
22145;DHT22;11238;48.730;11.566;2024-01-10T02:13:50;-5.40;99.90
22145;DHT22;11238;48.730;11.566;2024-01-10T02:16:18;-5.40;99.90
22145;DHT22;11238;48.730;11.566;2024-01-10T02:18:44;-5.40;99.90
22145;DHT22;11238;48.730;11.566;2024-01-10T02:21:10;-5.40;99.90
22145;DHT22;11238;48.730;11.566;2024-01-10T02:23:36;-5.50;99.90
22145;DHT22;11238;48.730;11.566;2024-01-10T02:26:08;-5.50;99.90
22145;DHT22;11238;48.730;11.566;2024-01-10T02:28:36;-5.50;99.90
22145;DHT22;11238;48.730;11.566;2024-01-10T02:31:02;-5.50;99.90
22145;DHT22;11238;48.730;11.566;2024-01-10T02:33:34;-5.50;99.90
22145;DHT22;11238;48.730;11.566;2024-01-10T02:36:00;-5.50;99.90
22145;DHT22;11238;48.730;11.566;2024-01-10T02:38:25;-5.60;99.90
22145;DHT22;11238;48.730;11.566;2024-01-10T02:40:52;-5.60;99.90
22145;DHT22;11238;48.730;11.566;2024-01-10T02:43:19;-5.60;99.90
22145;DHT22;11238;48.730;11.566;2024-01-10T02:45:45;-5.60;99.90
22145;DHT22;11238;48.730;11.566;2024-01-10T02:48:11;-5.70;99.90
22145;DHT22;11238;48.730;11.566;2024-01-10T02:50:46;-5.70;99.90
22145;DHT22;11238;48.730;11.566;2024-01-10T02:53:12;-5.70;99.90
22145;DHT22;11238;48.730;11.566;2024-01-10T02:55:38;-5.70;99.90
22145;DHT22;11238;48.730;11.566;2024-01-10T02:58:04;-5.80;99.90
22145;DHT22;11238;48.730;11.566;2024-01-10T03:00:30;-5.70;99.90
22145;DHT22;11238;48.730;11.566;2024-01-10T03:02:56;-5.80;99.90
22145;DHT22;11238;48.730;11.566;2024-01-10T03:05:21;-5.70;99.90
22145;DHT22;11238;48.730;11.566;2024-01-10T03:07:47;-5.80;99.90
22145;DHT22;11238;48.730;11.566;2024-01-10T03:10:13;-5.80;99.90
22145;DHT22;11238;48.730;11.566;2024-01-10T03:12:39;-5.80;99.90
22145;DHT22;11238;48.730;11.566;2024-01-10T03:15:06;-5.80;99.90
22145;DHT22;11238;48.730;11.566;2024-01-10T03:17:32;-5.90;99.90
22145;DHT22;11238;48.730;11.566;2024-01-10T03:20:03;-5.90;99.90
22145;DHT22;11238;48.730;11.566;2024-01-10T03:22:31;-5.90;99.90
22145;DHT22;11238;48.730;11.566;2024-01-10T03:24:58;-6.00;99.90
22145;DHT22;11238;48.730;11.566;2024-01-10T03:27:24;-5.90;99.90
22145;DHT22;11238;48.730;11.566;2024-01-10T03:29:50;-6.00;99.90
22145;DHT22;11238;48.730;11.566;2024-01-10T03:32:16;-5.90;99.90
22145;DHT22;11238;48.730;11.566;2024-01-10T03:34:52;-6.00;99.90
22145;DHT22;11238;48.730;11.566;2024-01-10T03:37:27;-6.00;99.90
22145;DHT22;11238;48.730;11.566;2024-01-10T03:39:56;-6.00;99.90
22145;DHT22;11238;48.730;11.566;2024-01-10T03:42:22;-6.00;99.90
22145;DHT22;11238;48.730;11.566;2024-01-10T03:44:48;-6.00;99.90
22145;DHT22;11238;48.730;11.566;2024-01-10T03:47:14;-6.10;99.90
22145;DHT22;11238;48.730;11.566;2024-01-10T03:49:40;-6.10;99.90
22145;DHT22;11238;48.730;11.566;2024-01-10T03:52:05;-6.10;99.90
22145;DHT22;11238;48.730;11.566;2024-01-10T03:54:31;-6.10;99.90
22145;DHT22;11238;48.730;11.566;2024-01-10T03:56:57;-6.10;99.90
22145;DHT22;11238;48.730;11.566;2024-01-10T03:59:23;-6.10;99.90
22145;DHT22;11238;48.730;11.566;2024-01-10T04:01:49;-6.10;99.90
22145;DHT22;11238;48.730;11.566;2024-01-10T04:04:15;-6.10;99.90
22145;DHT22;11238;48.730;11.566;2024-01-10T04:06:54;-6.00;99.90
22145;DHT22;11238;48.730;11.566;2024-01-10T04:09:22;-6.00;99.90
22145;DHT22;11238;48.730;11.566;2024-01-10T04:12:12;-6.00;99.90
22145;DHT22;11238;48.730;11.566;2024-01-10T04:14:37;-6.00;99.90
22145;DHT22;11238;48.730;11.566;2024-01-10T04:17:20;-6.00;99.90
22145;DHT22;11238;48.730;11.566;2024-01-10T04:19:49;-6.00;99.90
22145;DHT22;11238;48.730;11.566;2024-01-10T04:22:15;-6.00;99.90
22145;DHT22;11238;48.730;11.566;2024-01-10T04:24:41;-5.90;99.90
22145;DHT22;11238;48.730;11.566;2024-01-10T04:27:07;-5.90;99.90
22145;DHT22;11238;48.730;11.566;2024-01-10T04:29:32;-5.90;99.90
22145;DHT22;11238;48.730;11.566;2024-01-10T04:31:58;-5.90;99.90
22145;DHT22;11238;48.730;11.566;2024-01-10T04:34:24;-6.00;99.90
22145;DHT22;11238;48.730;11.566;2024-01-10T04:36:50;-6.00;99.90
22145;DHT22;11238;48.730;11.566;2024-01-10T04:39:16;-6.00;99.90
22145;DHT22;11238;48.730;11.566;2024-01-10T04:41:42;-6.00;99.90
22145;DHT22;11238;48.730;11.566;2024-01-10T04:44:08;-6.00;99.90
22145;DHT22;11238;48.730;11.566;2024-01-10T04:46:34;-6.10;99.90
22145;DHT22;11238;48.730;11.566;2024-01-10T04:49:00;-6.00;99.90
22145;DHT22;11238;48.730;11.566;2024-01-10T04:51:26;-6.10;99.90
22145;DHT22;11238;48.730;11.566;2024-01-10T04:53:52;-6.10;99.90
22145;DHT22;11238;48.730;11.566;2024-01-10T04:56:18;-6.10;99.90
22145;DHT22;11238;48.730;11.566;2024-01-10T04:58:46;-6.00;99.90
22145;DHT22;11238;48.730;11.566;2024-01-10T05:01:13;-6.10;99.90
22145;DHT22;11238;48.730;11.566;2024-01-10T05:03:38;-6.10;99.90
22145;DHT22;11238;48.730;11.566;2024-01-10T05:06:04;-6.20;99.90
22145;DHT22;11238;48.730;11.566;2024-01-10T05:08:30;-6.20;99.90
22145;DHT22;11238;48.730;11.566;2024-01-10T05:10:56;-6.20;99.90
22145;DHT22;11238;48.730;11.566;2024-01-10T05:13:22;-6.20;99.90
22145;DHT22;11238;48.730;11.566;2024-01-10T05:15:48;-6.20;99.90
22145;DHT22;11238;48.730;11.566;2024-01-10T05:18:16;-6.20;99.90
22145;DHT22;11238;48.730;11.566;2024-01-10T05:20:51;-6.20;99.90
22145;DHT22;11238;48.730;11.566;2024-01-10T05:23:37;-6.20;99.90
22145;DHT22;11238;48.730;11.566;2024-01-10T05:26:24;-6.20;99.90
22145;DHT22;11238;48.730;11.566;2024-01-10T05:29:09;-6.20;99.90
22145;DHT22;11238;48.730;11.566;2024-01-10T05:31:53;-6.20;99.90
22145;DHT22;11238;48.730;11.566;2024-01-10T05:34:28;-6.20;99.90
22145;DHT22;11238;48.730;11.566;2024-01-10T05:36:54;-6.20;99.90
22145;DHT22;11238;48.730;11.566;2024-01-10T05:39:20;-6.20;99.90
22145;DHT22;11238;48.730;11.566;2024-01-10T05:41:46;-6.30;99.90
22145;DHT22;11238;48.730;11.566;2024-01-10T05:44:12;-6.20;99.90
22145;DHT22;11238;48.730;11.566;2024-01-10T05:46:39;-6.20;99.90
22145;DHT22;11238;48.730;11.566;2024-01-10T05:49:04;-6.20;99.90
22145;DHT22;11238;48.730;11.566;2024-01-10T05:51:32;-6.20;99.90
22145;DHT22;11238;48.730;11.566;2024-01-10T05:53:58;-6.20;99.90
22145;DHT22;11238;48.730;11.566;2024-01-10T05:56:24;-6.20;99.90
22145;DHT22;11238;48.730;11.566;2024-01-10T05:58:51;-6.30;99.90
22145;DHT22;11238;48.730;11.566;2024-01-10T06:01:17;-6.40;99.90
22145;DHT22;11238;48.730;11.566;2024-01-10T06:03:43;-6.40;99.90
22145;DHT22;11238;48.730;11.566;2024-01-10T06:06:09;-6.40;99.90
22145;DHT22;11238;48.730;11.566;2024-01-10T06:08:35;-6.30;99.90
22145;DHT22;11238;48.730;11.566;2024-01-10T06:11:04;-6.30;99.90
22145;DHT22;11238;48.730;11.566;2024-01-10T06:13:56;-6.30;99.90
22145;DHT22;11238;48.730;11.566;2024-01-10T06:16:23;-6.30;99.90
22145;DHT22;11238;48.730;11.566;2024-01-10T06:18:50;-6.30;99.90
22145;DHT22;11238;48.730;11.566;2024-01-10T06:21:15;-6.30;99.90
22145;DHT22;11238;48.730;11.566;2024-01-10T06:23:41;-6.20;99.90
22145;DHT22;11238;48.730;11.566;2024-01-10T06:26:06;-6.20;99.90
22145;DHT22;11238;48.730;11.566;2024-01-10T06:28:33;-6.20;99.90
22145;DHT22;11238;48.730;11.566;2024-01-10T06:31:16;-6.10;99.90
22145;DHT22;11238;48.730;11.566;2024-01-10T06:33:43;-6.10;99.90
22145;DHT22;11238;48.730;11.566;2024-01-10T06:36:14;-6.10;99.90
22145;DHT22;11238;48.730;11.566;2024-01-10T06:38:40;-6.10;99.90
22145;DHT22;11238;48.730;11.566;2024-01-10T06:41:10;-6.20;99.90
22145;DHT22;11238;48.730;11.566;2024-01-10T06:43:36;-6.20;99.90
22145;DHT22;11238;48.730;11.566;2024-01-10T06:46:09;-6.20;99.90
22145;DHT22;11238;48.730;11.566;2024-01-10T06:48:37;-6.20;99.90
22145;DHT22;11238;48.730;11.566;2024-01-10T06:51:27;-6.20;99.90
22145;DHT22;11238;48.730;11.566;2024-01-10T06:53:53;-6.30;99.90
22145;DHT22;11238;48.730;11.566;2024-01-10T06:56:44;-6.30;99.90
22145;DHT22;11238;48.730;11.566;2024-01-10T06:59:26;-6.30;99.90
22145;DHT22;11238;48.730;11.566;2024-01-10T07:01:54;-6.20;99.90
22145;DHT22;11238;48.730;11.566;2024-01-10T07:04:23;-6.30;99.90
22145;DHT22;11238;48.730;11.566;2024-01-10T07:06:50;-6.30;99.90
22145;DHT22;11238;48.730;11.566;2024-01-10T07:09:16;-6.30;99.90
22145;DHT22;11238;48.730;11.566;2024-01-10T07:11:47;-6.30;99.90
22145;DHT22;11238;48.730;11.566;2024-01-10T07:14:16;-6.30;99.90
22145;DHT22;11238;48.730;11.566;2024-01-10T07:16:44;-6.30;99.90
22145;DHT22;11238;48.730;11.566;2024-01-10T07:19:14;-6.30;99.90
22145;DHT22;11238;48.730;11.566;2024-01-10T07:21:41;-6.40;99.90
22145;DHT22;11238;48.730;11.566;2024-01-10T07:24:07;-6.30;99.90
22145;DHT22;11238;48.730;11.566;2024-01-10T07:26:38;-6.30;99.90
22145;DHT22;11238;48.730;11.566;2024-01-10T07:29:04;-6.40;99.90
22145;DHT22;11238;48.730;11.566;2024-01-10T07:31:55;-6.40;99.90
22145;DHT22;11238;48.730;11.566;2024-01-10T07:34:44;-6.40;99.90
22145;DHT22;11238;48.730;11.566;2024-01-10T07:37:30;-6.40;99.90
22145;DHT22;11238;48.730;11.566;2024-01-10T07:40:11;-6.40;99.90
22145;DHT22;11238;48.730;11.566;2024-01-10T07:42:51;-6.40;99.90
22145;DHT22;11238;48.730;11.566;2024-01-10T07:45:36;-6.40;99.90
22145;DHT22;11238;48.730;11.566;2024-01-10T07:48:13;-6.30;99.90
22145;DHT22;11238;48.730;11.566;2024-01-10T07:51:08;-6.30;99.90
22145;DHT22;11238;48.730;11.566;2024-01-10T07:53:34;-6.30;99.90
22145;DHT22;11238;48.730;11.566;2024-01-10T07:56:23;-6.30;99.90
22145;DHT22;11238;48.730;11.566;2024-01-10T07:58:49;-6.20;99.90
22145;DHT22;11238;48.730;11.566;2024-01-10T08:01:15;-6.20;99.90
22145;DHT22;11238;48.730;11.566;2024-01-10T08:03:57;-6.10;99.90
22145;DHT22;11238;48.730;11.566;2024-01-10T08:06:23;-6.00;99.90
22145;DHT22;11238;48.730;11.566;2024-01-10T08:08:50;-6.10;99.90
22145;DHT22;11238;48.730;11.566;2024-01-10T08:11:16;-6.10;99.90
22145;DHT22;11238;48.730;11.566;2024-01-10T08:13:45;-6.00;99.90
22145;DHT22;11238;48.730;11.566;2024-01-10T08:16:11;-6.00;99.90
22145;DHT22;11238;48.730;11.566;2024-01-10T08:18:37;-5.90;99.90
22145;DHT22;11238;48.730;11.566;2024-01-10T08:21:03;-5.80;99.90
22145;DHT22;11238;48.730;11.566;2024-01-10T08:23:30;-5.80;99.90
22145;DHT22;11238;48.730;11.566;2024-01-10T08:25:57;-5.70;99.90
22145;DHT22;11238;48.730;11.566;2024-01-10T08:28:23;-5.60;99.90
22145;DHT22;11238;48.730;11.566;2024-01-10T08:30:49;-5.60;99.90
22145;DHT22;11238;48.730;11.566;2024-01-10T08:33:16;-5.50;99.90
22145;DHT22;11238;48.730;11.566;2024-01-10T08:35:46;-5.50;99.90
22145;DHT22;11238;48.730;11.566;2024-01-10T08:38:12;-5.40;99.90
22145;DHT22;11238;48.730;11.566;2024-01-10T08:40:38;-5.20;99.90
22145;DHT22;11238;48.730;11.566;2024-01-10T08:43:05;-5.10;99.90
22145;DHT22;11238;48.730;11.566;2024-01-10T08:45:30;-4.90;99.90
22145;DHT22;11238;48.730;11.566;2024-01-10T08:47:56;-4.80;99.90
22145;DHT22;11238;48.730;11.566;2024-01-10T08:50:24;-4.70;99.90
22145;DHT22;11238;48.730;11.566;2024-01-10T08:52:50;-4.60;99.90
22145;DHT22;11238;48.730;11.566;2024-01-10T08:55:16;-4.30;99.90
22145;DHT22;11238;48.730;11.566;2024-01-10T08:57:42;-4.20;99.90
22145;DHT22;11238;48.730;11.566;2024-01-10T09:00:14;-4.00;99.90
22145;DHT22;11238;48.730;11.566;2024-01-10T09:02:40;-3.70;99.90
22145;DHT22;11238;48.730;11.566;2024-01-10T09:05:13;-3.50;99.90
22145;DHT22;11238;48.730;11.566;2024-01-10T09:07:41;-3.20;99.90
22145;DHT22;11238;48.730;11.566;2024-01-10T09:10:42;-2.90;99.90
22145;DHT22;11238;48.730;11.566;2024-01-10T09:13:18;-2.60;99.90
22145;DHT22;11238;48.730;11.566;2024-01-10T09:15:54;-2.30;99.90
22145;DHT22;11238;48.730;11.566;2024-01-10T09:18:25;-1.90;99.90
22145;DHT22;11238;48.730;11.566;2024-01-10T09:20:54;-1.50;99.90
22145;DHT22;11238;48.730;11.566;2024-01-10T09:23:20;-1.10;99.90
22145;DHT22;11238;48.730;11.566;2024-01-10T09:25:46;-0.80;99.10
22145;DHT22;11238;48.730;11.566;2024-01-10T09:28:12;-0.50;98.50
22145;DHT22;11238;48.730;11.566;2024-01-10T09:30:59;0.20;96.90
22145;DHT22;11238;48.730;11.566;2024-01-10T09:33:26;0.90;95.60
22145;DHT22;11238;48.730;11.566;2024-01-10T09:35:53;1.90;94.20
22145;DHT22;11238;48.730;11.566;2024-01-10T09:38:19;2.70;91.80
22145;DHT22;11238;48.730;11.566;2024-01-10T09:40:45;3.40;89.80
22145;DHT22;11238;48.730;11.566;2024-01-10T09:43:11;4.00;85.60
22145;DHT22;11238;48.730;11.566;2024-01-10T09:45:37;4.30;80.50
22145;DHT22;11238;48.730;11.566;2024-01-10T09:48:32;4.80;78.80
22145;DHT22;11238;48.730;11.566;2024-01-10T09:51:00;5.40;75.60
22145;DHT22;11238;48.730;11.566;2024-01-10T09:53:31;5.90;73.30
22145;DHT22;11238;48.730;11.566;2024-01-10T09:56:12;6.50;71.30
22145;DHT22;11238;48.730;11.566;2024-01-10T09:59:05;7.00;68.60
22145;DHT22;11238;48.730;11.566;2024-01-10T10:01:45;7.30;65.30
22145;DHT22;11238;48.730;11.566;2024-01-10T10:04:12;7.60;64.60
22145;DHT22;11238;48.730;11.566;2024-01-10T10:06:38;7.80;63.80
22145;DHT22;11238;48.730;11.566;2024-01-10T10:09:07;7.90;62.70
22145;DHT22;11238;48.730;11.566;2024-01-10T10:11:34;7.80;62.90
22145;DHT22;11238;48.730;11.566;2024-01-10T10:14:14;8.10;61.00
22145;DHT22;11238;48.730;11.566;2024-01-10T10:16:41;8.10;60.30
22145;DHT22;11238;48.730;11.566;2024-01-10T10:19:07;8.50;60.50
22145;DHT22;11238;48.730;11.566;2024-01-10T10:21:35;8.60;59.20
22145;DHT22;11238;48.730;11.566;2024-01-10T10:24:01;8.80;58.80
22145;DHT22;11238;48.730;11.566;2024-01-10T10:26:32;8.90;58.40
22145;DHT22;11238;48.730;11.566;2024-01-10T10:28:58;8.80;58.30
22145;DHT22;11238;48.730;11.566;2024-01-10T10:31:24;9.00;57.90
22145;DHT22;11238;48.730;11.566;2024-01-10T10:33:50;8.70;57.70
22145;DHT22;11238;48.730;11.566;2024-01-10T10:36:17;8.80;57.50
22145;DHT22;11238;48.730;11.566;2024-01-10T10:38:43;8.00;56.20
22145;DHT22;11238;48.730;11.566;2024-01-10T10:41:09;7.20;58.30
22145;DHT22;11238;48.730;11.566;2024-01-10T10:43:37;7.20;61.10
22145;DHT22;11238;48.730;11.566;2024-01-10T10:46:08;7.30;62.10
22145;DHT22;11238;48.730;11.566;2024-01-10T10:48:35;7.20;60.80
22145;DHT22;11238;48.730;11.566;2024-01-10T10:53:39;7.20;61.40
22145;DHT22;11238;48.730;11.566;2024-01-10T10:56:08;6.90;61.00
22145;DHT22;11238;48.730;11.566;2024-01-10T10:58:42;6.80;61.80
22145;DHT22;11238;48.730;11.566;2024-01-10T11:01:11;6.90;62.00
22145;DHT22;11238;48.730;11.566;2024-01-10T11:03:39;6.80;62.10
22145;DHT22;11238;48.730;11.566;2024-01-10T11:06:07;6.70;64.50
22145;DHT22;11238;48.730;11.566;2024-01-10T11:08:40;6.80;62.90
22145;DHT22;11238;48.730;11.566;2024-01-10T11:12:05;6.80;62.90
22145;DHT22;11238;48.730;11.566;2024-01-10T11:17:12;6.70;64.30
22145;DHT22;11238;48.730;11.566;2024-01-10T11:23:49;5.80;64.90
22145;DHT22;11238;48.730;11.566;2024-01-10T11:25:58;5.70;66.10
22145;DHT22;11238;48.730;11.566;2024-01-10T11:28:25;5.00;66.10
22145;DHT22;11238;48.730;11.566;2024-01-10T11:30:53;4.90;68.50
22145;DHT22;11238;48.730;11.566;2024-01-10T11:33:31;4.70;67.70
22145;DHT22;11238;48.730;11.566;2024-01-10T11:36:15;4.50;70.00
22145;DHT22;11238;48.730;11.566;2024-01-10T11:41:26;4.30;73.10
22145;DHT22;11238;48.730;11.566;2024-01-10T11:46:47;4.10;73.80
22145;DHT22;11238;48.730;11.566;2024-01-10T11:49:17;4.00;73.40
22145;DHT22;11238;48.730;11.566;2024-01-10T11:51:46;4.00;73.00
22145;DHT22;11238;48.730;11.566;2024-01-10T11:54:12;3.80;73.40
22145;DHT22;11238;48.730;11.566;2024-01-10T11:56:43;3.70;74.70
22145;DHT22;11238;48.730;11.566;2024-01-10T11:59:11;3.60;76.20
22145;DHT22;11238;48.730;11.566;2024-01-10T12:01:39;3.40;75.50
22145;DHT22;11238;48.730;11.566;2024-01-10T12:04:05;3.40;77.30
22145;DHT22;11238;48.730;11.566;2024-01-10T12:06:35;3.40;76.60
22145;DHT22;11238;48.730;11.566;2024-01-10T12:09:02;3.40;76.30
22145;DHT22;11238;48.730;11.566;2024-01-10T12:11:35;3.40;76.20
22145;DHT22;11238;48.730;11.566;2024-01-10T12:14:01;3.10;75.70
22145;DHT22;11238;48.730;11.566;2024-01-10T12:16:28;2.70;76.70
22145;DHT22;11238;48.730;11.566;2024-01-10T12:18:55;2.60;79.30
22145;DHT22;11238;48.730;11.566;2024-01-10T12:21:21;2.60;79.30
22145;DHT22;11238;48.730;11.566;2024-01-10T12:23:47;2.60;79.70
22145;DHT22;11238;48.730;11.566;2024-01-10T12:26:14;2.70;80.40
22145;DHT22;11238;48.730;11.566;2024-01-10T12:28:40;2.70;79.50
22145;DHT22;11238;48.730;11.566;2024-01-10T12:31:08;2.70;79.40
22145;DHT22;11238;48.730;11.566;2024-01-10T12:33:37;2.60;79.30
22145;DHT22;11238;48.730;11.566;2024-01-10T12:36:10;2.50;78.90
22145;DHT22;11238;48.730;11.566;2024-01-10T12:38:38;2.50;80.10
22145;DHT22;11238;48.730;11.566;2024-01-10T12:41:05;2.50;81.90
22145;DHT22;11238;48.730;11.566;2024-01-10T12:43:31;2.70;80.90
22145;DHT22;11238;48.730;11.566;2024-01-10T12:46:04;2.80;79.30
22145;DHT22;11238;48.730;11.566;2024-01-10T12:48:31;2.60;80.20
22145;DHT22;11238;48.730;11.566;2024-01-10T12:50:59;2.70;80.90
22145;DHT22;11238;48.730;11.566;2024-01-10T12:53:29;2.60;79.10
22145;DHT22;11238;48.730;11.566;2024-01-10T12:55:57;2.60;81.60
22145;DHT22;11238;48.730;11.566;2024-01-10T12:58:23;2.30;80.90
22145;DHT22;11238;48.730;11.566;2024-01-10T13:00:48;2.30;82.10
22145;DHT22;11238;48.730;11.566;2024-01-10T13:03:15;2.40;81.30
22145;DHT22;11238;48.730;11.566;2024-01-10T13:05:43;2.30;81.50
22145;DHT22;11238;48.730;11.566;2024-01-10T13:08:09;2.50;81.80
22145;DHT22;11238;48.730;11.566;2024-01-10T13:10:37;2.50;81.60
22145;DHT22;11238;48.730;11.566;2024-01-10T13:13:03;2.60;81.50
22145;DHT22;11238;48.730;11.566;2024-01-10T13:15:29;2.60;81.20
22145;DHT22;11238;48.730;11.566;2024-01-10T13:17:56;2.60;82.10
22145;DHT22;11238;48.730;11.566;2024-01-10T13:20:24;2.70;82.10
22145;DHT22;11238;48.730;11.566;2024-01-10T13:22:51;2.80;81.50
22145;DHT22;11238;48.730;11.566;2024-01-10T13:25:17;2.70;81.70
22145;DHT22;11238;48.730;11.566;2024-01-10T13:27:44;2.70;81.80
22145;DHT22;11238;48.730;11.566;2024-01-10T13:30:09;2.30;82.50
22145;DHT22;11238;48.730;11.566;2024-01-10T13:33:01;2.30;84.00
22145;DHT22;11238;48.730;11.566;2024-01-10T13:35:27;2.30;84.60
22145;DHT22;11238;48.730;11.566;2024-01-10T13:37:52;2.20;84.20
22145;DHT22;11238;48.730;11.566;2024-01-10T13:40:18;2.20;84.40
22145;DHT22;11238;48.730;11.566;2024-01-10T13:42:50;1.70;83.70
22145;DHT22;11238;48.730;11.566;2024-01-10T13:45:16;1.70;86.10
22145;DHT22;11238;48.730;11.566;2024-01-10T13:47:43;1.80;86.70
22145;DHT22;11238;48.730;11.566;2024-01-10T13:50:09;1.80;85.40
22145;DHT22;11238;48.730;11.566;2024-01-10T13:52:36;1.80;85.90
22145;DHT22;11238;48.730;11.566;2024-01-10T13:55:03;1.80;85.90
22145;DHT22;11238;48.730;11.566;2024-01-10T13:57:30;1.90;85.90
22145;DHT22;11238;48.730;11.566;2024-01-10T14:00:00;1.90;85.20
22145;DHT22;11238;48.730;11.566;2024-01-10T14:02:37;1.90;85.10
22145;DHT22;11238;48.730;11.566;2024-01-10T14:05:03;1.90;85.50
22145;DHT22;11238;48.730;11.566;2024-01-10T14:07:34;1.80;85.30
22145;DHT22;11238;48.730;11.566;2024-01-10T14:10:22;1.80;85.50
22145;DHT22;11238;48.730;11.566;2024-01-10T14:12:48;1.70;85.40
22145;DHT22;11238;48.730;11.566;2024-01-10T14:15:14;1.70;86.80
22145;DHT22;11238;48.730;11.566;2024-01-10T14:17:41;1.80;86.20
22145;DHT22;11238;48.730;11.566;2024-01-10T14:20:07;1.70;86.80
22145;DHT22;11238;48.730;11.566;2024-01-10T14:22:35;1.70;86.50
22145;DHT22;11238;48.730;11.566;2024-01-10T14:25:02;1.70;86.10
22145;DHT22;11238;48.730;11.566;2024-01-10T14:27:50;1.70;86.30
22145;DHT22;11238;48.730;11.566;2024-01-10T14:30:15;1.60;87.30
22145;DHT22;11238;48.730;11.566;2024-01-10T14:32:41;1.50;86.20
22145;DHT22;11238;48.730;11.566;2024-01-10T14:35:07;1.40;86.70
22145;DHT22;11238;48.730;11.566;2024-01-10T14:37:33;1.30;87.00
22145;DHT22;11238;48.730;11.566;2024-01-10T14:40:02;1.20;87.30
22145;DHT22;11238;48.730;11.566;2024-01-10T14:42:29;1.10;87.50
22145;DHT22;11238;48.730;11.566;2024-01-10T14:44:55;1.00;88.00
22145;DHT22;11238;48.730;11.566;2024-01-10T14:47:21;0.90;88.30
22145;DHT22;11238;48.730;11.566;2024-01-10T14:49:48;0.90;89.80
22145;DHT22;11238;48.730;11.566;2024-01-10T14:52:14;0.90;89.30
22145;DHT22;11238;48.730;11.566;2024-01-10T14:54:40;0.90;90.00
22145;DHT22;11238;48.730;11.566;2024-01-10T14:57:06;0.90;90.00
22145;DHT22;11238;48.730;11.566;2024-01-10T14:59:33;0.80;90.00
22145;DHT22;11238;48.730;11.566;2024-01-10T15:02:02;0.90;90.70
22145;DHT22;11238;48.730;11.566;2024-01-10T15:04:28;0.80;90.30
22145;DHT22;11238;48.730;11.566;2024-01-10T15:06:57;0.70;90.40
22145;DHT22;11238;48.730;11.566;2024-01-10T15:09:23;0.60;90.50
22145;DHT22;11238;48.730;11.566;2024-01-10T15:11:48;0.60;90.70
22145;DHT22;11238;48.730;11.566;2024-01-10T15:14:16;0.50;91.10
22145;DHT22;11238;48.730;11.566;2024-01-10T15:16:42;0.50;91.10
22145;DHT22;11238;48.730;11.566;2024-01-10T15:19:08;0.40;91.20
22145;DHT22;11238;48.730;11.566;2024-01-10T15:21:56;0.40;91.40
22145;DHT22;11238;48.730;11.566;2024-01-10T15:24:22;0.30;91.60
22145;DHT22;11238;48.730;11.566;2024-01-10T15:26:50;0.30;91.80
22145;DHT22;11238;48.730;11.566;2024-01-10T15:29:16;0.30;92.10
22145;DHT22;11238;48.730;11.566;2024-01-10T15:31:42;0.30;92.20
22145;DHT22;11238;48.730;11.566;2024-01-10T15:34:08;0.30;92.00
22145;DHT22;11238;48.730;11.566;2024-01-10T15:36:38;0.20;92.00
22145;DHT22;11238;48.730;11.566;2024-01-10T15:39:05;0.10;92.10
22145;DHT22;11238;48.730;11.566;2024-01-10T15:41:30;0.20;92.30
22145;DHT22;11238;48.730;11.566;2024-01-10T15:43:56;0.10;92.40
22145;DHT22;11238;48.730;11.566;2024-01-10T15:46:22;0.00;92.70
22145;DHT22;11238;48.730;11.566;2024-01-10T15:48:48;0.00;92.80